createdAt,value
2019-03-12T00:00:43.300Z,11.22
2019-03-12T00:03:12.398Z,10.10
2019-03-12T00:05:41.470Z,5.72
2019-03-12T00:08:10.790Z,8.90
2019-03-12T00:10:39.879Z,7.05
2019-03-12T00:13:08.950Z,8.15
2019-03-12T00:15:38.024Z,8.30
2019-03-12T00:18:07.097Z,8.78
2019-03-12T00:20:36.171Z,8.45
2019-03-12T00:23:05.266Z,7.28
2019-03-12T00:25:34.334Z,9.93
2019-03-12T00:28:03.410Z,10.90
2019-03-12T00:30:32.762Z,7.33
2019-03-12T00:33:01.856Z,10.00
2019-03-12T00:35:30.926Z,11.93
2019-03-12T00:38:00.000Z,11.35
2019-03-12T00:40:29.086Z,9.80
2019-03-12T00:42:58.158Z,7.42
2019-03-12T00:45:27.229Z,9.28
2019-03-12T00:47:56.326Z,9.18
2019-03-12T00:50:25.399Z,7.87
2019-03-12T00:52:54.750Z,14.70
2019-03-12T00:55:23.843Z,7.80
2019-03-12T00:57:52.918Z,10.50
2019-03-12T01:00:22.076Z,8.05
2019-03-12T01:02:51.255Z,10.35
2019-03-12T01:05:20.326Z,8.40
2019-03-12T01:07:49.754Z,10.90
2019-03-12T01:10:18.818Z,10.95
2019-03-12T01:12:47.892Z,7.35
2019-03-12T01:15:16.966Z,9.30
2019-03-12T01:17:46.053Z,9.83
2019-03-12T01:20:15.563Z,8.45
2019-03-12T01:22:45.026Z,11.08
2019-03-12T01:25:14.138Z,7.75
2019-03-12T01:27:43.207Z,11.83
2019-03-12T01:30:16.530Z,10.58
2019-03-12T01:32:45.592Z,8.53
2019-03-12T01:35:14.690Z,10.03
2019-03-12T01:37:43.764Z,11.45
2019-03-12T01:40:13.880Z,9.58
2019-03-12T01:42:42.969Z,13.20
2019-03-12T01:45:13.876Z,9.28
2019-03-12T01:47:42.966Z,7.60
2019-03-12T01:50:14.138Z,13.55
2019-03-12T01:52:43.223Z,11.00
2019-03-12T01:55:13.842Z,8.75
2019-03-12T01:57:42.916Z,8.48
2019-03-12T02:00:17.161Z,8.20
2019-03-12T02:02:46.234Z,11.20
2019-03-12T02:05:15.320Z,10.80
2019-03-12T02:07:44.390Z,10.23
2019-03-12T02:10:14.529Z,12.45
2019-03-12T02:12:43.604Z,9.25
2019-03-12T02:15:14.310Z,12.63
2019-03-12T02:17:43.399Z,14.20
2019-03-12T02:20:15.151Z,13.72
2019-03-12T02:22:44.299Z,13.45
2019-03-12T02:25:17.566Z,12.37
2019-03-12T02:27:46.650Z,12.43
2019-03-12T02:30:20.364Z,7.92
2019-03-12T02:32:49.444Z,8.23
2019-03-12T02:35:18.515Z,8.58
2019-03-12T02:37:47.595Z,7.90
2019-03-12T02:40:16.681Z,9.35
2019-03-12T02:42:45.747Z,10.68
2019-03-12T02:45:17.501Z,8.73
2019-03-12T02:47:46.579Z,8.15
2019-03-12T02:50:16.135Z,12.93
2019-03-12T02:52:45.298Z,8.38
2019-03-12T02:55:14.694Z,11.97
2019-03-12T02:57:43.777Z,14.33
2019-03-12T03:00:19.251Z,9.48
2019-03-12T03:02:48.328Z,7.62
2019-03-12T03:05:17.416Z,6.90
2019-03-12T03:07:51.072Z,10.93
2019-03-12T03:10:20.174Z,11.50
2019-03-12T03:12:49.420Z,8.45
2019-03-12T03:15:21.604Z,11.15
2019-03-12T03:17:50.746Z,9.08
2019-03-12T03:20:20.118Z,10.55
2019-03-12T03:22:49.261Z,14.47
2019-03-12T03:25:18.368Z,10.98
2019-03-12T03:27:47.452Z,11.15
2019-03-12T03:30:22.089Z,11.95
2019-03-12T03:32:51.369Z,8.58
2019-03-12T03:35:20.451Z,10.53
2019-03-12T03:37:49.574Z,13.50
2019-03-12T03:40:20.290Z,6.58
2019-03-12T03:42:49.455Z,10.63
2019-03-12T03:45:19.360Z,15.10
2019-03-12T03:47:48.445Z,9.53
2019-03-12T03:50:17.901Z,12.53
2019-03-12T03:52:47.066Z,10.50
2019-03-12T03:55:20.422Z,12.45
2019-03-12T03:57:49.534Z,11.65
2019-03-12T04:00:23.039Z,11.38
2019-03-12T04:02:52.173Z,12.85
2019-03-12T04:05:21.241Z,13.38
2019-03-12T04:07:50.354Z,9.40
2019-03-12T04:10:19.493Z,11.05
2019-03-12T04:12:48.576Z,10.20
2019-03-12T04:15:18.490Z,11.10
2019-03-12T04:17:47.579Z,7.42
2019-03-12T04:20:17.612Z,11.40
2019-03-12T04:22:46.706Z,12.88
2019-03-12T04:25:16.070Z,10.10
2019-03-12T04:27:45.158Z,10.70
2019-03-12T04:30:17.871Z,8.68
2019-03-12T04:32:46.950Z,8.53
2019-03-12T04:35:22.289Z,8.03
2019-03-12T04:40:20.811Z,8.40
2019-03-12T04:42:50.001Z,11.73
2019-03-12T04:45:19.116Z,7.83
2019-03-12T04:47:48.190Z,11.18
2019-03-12T04:50:17.275Z,7.83
2019-03-12T04:52:46.687Z,7.67
2019-03-12T04:55:16.804Z,8.83
2019-03-12T04:57:45.902Z,9.23
2019-03-12T05:00:20.000Z,6.95
2019-03-12T05:02:49.066Z,9.33
2019-03-12T05:05:18.415Z,9.95
2019-03-12T05:07:47.498Z,9.50
2019-03-12T05:10:16.663Z,11.57
2019-03-12T05:12:45.736Z,9.08
2019-03-12T05:15:17.232Z,10.95
2019-03-12T05:17:46.309Z,9.03
2019-03-12T05:20:15.931Z,9.40
2019-03-12T05:22:45.006Z,9.88
2019-03-12T05:25:14.831Z,9.53
2019-03-12T05:27:43.902Z,6.62
2019-03-12T05:30:17.658Z,8.45
2019-03-12T05:32:46.732Z,8.85
2019-03-12T05:35:15.810Z,11.93
2019-03-12T05:37:44.949Z,11.65
2019-03-12T05:40:15.204Z,10.15
2019-03-12T05:42:44.364Z,6.58
2019-03-12T05:45:14.864Z,6.22
2019-03-12T05:47:43.942Z,11.43
2019-03-12T05:50:15.318Z,10.53
2019-03-12T05:52:44.403Z,10.18
2019-03-12T05:55:15.270Z,9.48
2019-03-12T05:57:45.327Z,7.05
2019-03-12T06:00:17.162Z,8.43
2019-03-12T06:02:46.237Z,9.65
2019-03-12T06:05:15.341Z,10.60
2019-03-12T06:07:44.410Z,6.58
2019-03-12T06:10:16.449Z,11.15
2019-03-12T06:12:45.845Z,11.10
2019-03-12T06:15:16.311Z,10.00
2019-03-12T06:17:46.265Z,6.97
2019-03-12T06:20:17.416Z,9.40
2019-03-12T06:22:47.311Z,10.32
2019-03-12T06:25:16.910Z,14.25
2019-03-12T06:27:45.980Z,13.93
2019-03-12T06:30:19.359Z,7.80
2019-03-12T06:32:50.399Z,9.15
2019-03-12T06:35:27.175Z,14.68
2019-03-12T06:37:58.220Z,12.23
2019-03-12T06:40:38.143Z,14.58
2019-03-12T06:43:11.846Z,14.90
2019-03-12T06:45:48.473Z,13.85
2019-03-12T06:48:19.594Z,14.25
2019-03-12T06:51:06.430Z,12.10
2019-03-12T06:53:40.112Z,13.83
2019-03-12T06:56:27.254Z,11.95
2019-03-12T06:59:04.154Z,13.03
2019-03-12T07:01:50.184Z,22.90
2019-03-12T07:04:23.929Z,14.43
2019-03-12T07:07:01.107Z,10.65
2019-03-12T07:09:50.114Z,16.37
2019-03-12T07:12:20.828Z,23.00
2019-03-12T07:15:00.622Z,14.60
2019-03-12T07:17:37.514Z,12.45
2019-03-12T07:20:13.190Z,13.70
2019-03-12T07:22:45.861Z,14.58
2019-03-12T07:25:26.250Z,12.30
2019-03-12T07:28:13.218Z,11.85
2019-03-12T07:30:50.234Z,16.07
2019-03-12T07:33:21.100Z,14.18
2019-03-12T07:36:00.709Z,15.08
2019-03-12T07:38:37.006Z,14.93
2019-03-12T07:41:31.909Z,12.85
2019-03-12T07:43:56.383Z,16.17
2019-03-12T07:46:29.798Z,13.25
2019-03-12T07:49:09.490Z,14.00
2019-03-12T07:51:52.262Z,16.12
2019-03-12T07:54:34.958Z,14.07
2019-03-12T07:57:20.674Z,12.50
2019-03-12T08:02:44.091Z,13.05
2019-03-12T08:05:14.816Z,13.30
2019-03-12T08:07:51.450Z,15.18
2019-03-12T08:10:40.670Z,10.55
2019-03-12T08:13:11.714Z,13.18
2019-03-12T08:15:45.102Z,13.43
2019-03-12T08:18:35.563Z,14.35
2019-03-12T08:21:21.450Z,13.35
2019-03-12T08:23:41.696Z,13.68
2019-03-12T08:26:29.154Z,16.20
2019-03-12T08:29:09.044Z,12.75
2019-03-12T08:31:39.758Z,13.72
2019-03-12T08:34:22.670Z,12.33
2019-03-12T08:36:56.138Z,13.93
2019-03-12T08:39:31.101Z,12.37
2019-03-12T08:42:01.826Z,10.88
2019-03-12T08:44:32.538Z,12.43
2019-03-12T08:47:18.359Z,11.50
2019-03-12T08:50:04.446Z,10.63
2019-03-12T08:52:36.238Z,11.20
2019-03-12T08:55:22.403Z,14.00
2019-03-12T08:58:02.194Z,14.47
2019-03-12T09:00:35.879Z,12.68
2019-03-12T09:03:09.581Z,11.78
2019-03-12T09:05:40.294Z,10.90
2019-03-12T09:08:14.139Z,13.50
2019-03-12T09:10:56.871Z,11.63
2019-03-12T09:13:27.927Z,11.78
2019-03-12T09:16:08.194Z,11.80
2019-03-12T09:18:41.866Z,11.65
2019-03-12T09:21:18.446Z,11.88
2019-03-12T09:23:52.014Z,12.50
2019-03-12T09:26:37.837Z,9.55
2019-03-12T09:31:41.063Z,11.38
2019-03-12T09:34:20.823Z,12.68
2019-03-12T09:37:02.835Z,12.63
2019-03-12T09:39:33.010Z,14.03
2019-03-12T09:42:03.727Z,11.73
2019-03-12T09:44:43.362Z,8.30
2019-03-12T09:47:16.995Z,13.53
2019-03-12T09:49:59.967Z,12.28
2019-03-12T09:52:42.407Z,11.60
2019-03-12T09:55:16.363Z,12.30
2019-03-12T09:57:47.074Z,13.38
2019-03-12T10:00:34.099Z,14.23
2019-03-12T10:03:07.818Z,12.58
2019-03-12T10:05:38.863Z,11.83
2019-03-12T10:08:26.094Z,14.43
2019-03-12T10:10:59.642Z,11.43
2019-03-12T10:13:45.403Z,11.38
2019-03-12T10:19:13.722Z,7.62
2019-03-12T10:22:00.986Z,11.15
2019-03-12T10:24:37.370Z,11.20
2019-03-12T10:27:17.167Z,10.18
2019-03-12T10:30:04.114Z,9.15
2019-03-12T10:32:47.798Z,12.00
2019-03-12T10:35:18.592Z,12.18
2019-03-12T10:37:49.311Z,11.12
2019-03-12T10:40:20.050Z,15.38
2019-03-12T10:42:58.834Z,11.90
2019-03-12T10:45:29.574Z,10.45
2019-03-12T10:48:00.369Z,13.53
2019-03-12T10:50:29.466Z,11.73
2019-03-12T10:52:58.618Z,13.93
2019-03-12T10:55:27.696Z,7.78
2019-03-12T10:57:56.783Z,10.93
2019-03-12T11:00:25.859Z,15.35
2019-03-12T11:02:54.942Z,10.82
2019-03-12T11:05:24.030Z,10.05
2019-03-12T11:07:53.130Z,10.25
2019-03-12T11:10:22.251Z,11.33
2019-03-12T11:12:51.319Z,16.12
2019-03-12T11:15:20.406Z,14.07
2019-03-12T11:17:50.762Z,9.50
2019-03-12T11:20:26.874Z,12.80
2019-03-12T11:22:55.958Z,13.90
2019-03-12T11:25:27.640Z,9.50
2019-03-12T11:27:56.160Z,11.73
2019-03-12T11:30:25.251Z,12.75
2019-03-12T11:32:54.354Z,16.70
2019-03-12T11:35:23.427Z,9.63
2019-03-12T11:37:52.767Z,10.08
2019-03-12T11:40:24.259Z,12.50
2019-03-12T11:42:53.331Z,8.63
2019-03-12T11:45:35.529Z,9.10
2019-03-12T11:47:53.543Z,12.73
2019-03-12T11:50:23.968Z,15.40
2019-03-12T11:52:57.166Z,12.10
2019-03-12T11:55:23.871Z,13.05
2019-03-12T11:57:53.417Z,10.50
2019-03-12T12:00:31.353Z,8.88
2019-03-12T12:03:00.870Z,12.78
2019-03-12T12:05:30.946Z,12.88
2019-03-12T12:08:00.204Z,12.37
2019-03-12T12:10:29.521Z,11.05
2019-03-12T12:12:58.610Z,14.00
2019-03-12T12:15:27.714Z,12.10
2019-03-12T12:17:56.790Z,11.03
2019-03-12T12:20:30.195Z,9.25
2019-03-12T12:22:56.988Z,13.08
2019-03-12T12:25:26.081Z,12.82
2019-03-12T12:27:55.178Z,13.43
2019-03-12T12:30:24.530Z,9.48
2019-03-12T12:32:53.614Z,12.90
2019-03-12T12:35:22.725Z,7.05
2019-03-12T12:37:51.823Z,10.88
2019-03-12T12:40:21.975Z,9.45
2019-03-12T12:42:51.044Z,9.63
2019-03-12T12:45:31.518Z,6.42
2019-03-12T12:48:00.602Z,12.73
2019-03-12T12:50:29.951Z,7.97
2019-03-12T12:52:59.266Z,10.72
2019-03-12T12:55:28.343Z,9.43
2019-03-12T12:57:57.430Z,14.28
2019-03-12T13:00:28.054Z,10.20
2019-03-12T13:02:57.146Z,11.63
2019-03-12T13:05:26.246Z,11.65
2019-03-12T13:07:55.571Z,12.80
2019-03-12T13:10:30.662Z,10.45
2019-03-12T13:12:59.773Z,9.43
2019-03-12T13:15:28.846Z,7.97
2019-03-12T13:17:57.935Z,10.48
2019-03-12T13:20:27.019Z,16.62
2019-03-12T13:22:56.098Z,9.00
2019-03-12T13:25:25.203Z,6.92
2019-03-12T13:27:54.282Z,9.78
2019-03-12T13:30:24.606Z,7.53
2019-03-12T13:32:53.706Z,8.98
2019-03-12T13:35:22.832Z,6.90
2019-03-12T13:37:51.913Z,9.13
2019-03-12T13:40:24.788Z,8.65
2019-03-12T13:42:54.285Z,8.35
2019-03-12T13:45:24.819Z,10.95
2019-03-12T13:47:53.951Z,7.92
2019-03-12T13:50:23.341Z,6.00
2019-03-12T13:52:52.467Z,7.87
2019-03-12T13:55:21.765Z,6.75
2019-03-12T13:57:51.012Z,7.17
2019-03-12T14:00:24.526Z,9.48
2019-03-12T14:02:53.923Z,8.05
2019-03-12T14:05:22.999Z,9.35
2019-03-12T14:07:52.085Z,8.53
2019-03-12T14:10:23.257Z,7.28
2019-03-12T14:12:55.946Z,8.68
2019-03-12T14:15:30.509Z,6.47
2019-03-12T14:17:59.655Z,6.78
2019-03-12T14:20:57.690Z,5.42
2019-03-12T14:23:35.278Z,7.85
2019-03-12T14:26:04.462Z,4.22
2019-03-12T14:28:33.939Z,6.58
2019-03-12T14:31:03.027Z,5.33
2019-03-12T14:33:32.106Z,6.75
2019-03-12T14:36:01.190Z,11.55
2019-03-12T14:38:30.339Z,10.18
2019-03-12T14:40:59.730Z,8.73
2019-03-12T14:43:28.814Z,7.03
2019-03-12T14:45:58.238Z,5.17
2019-03-12T14:48:45.530Z,6.25
2019-03-12T14:51:23.666Z,4.00
2019-03-12T14:53:55.946Z,7.58
2019-03-12T14:56:30.007Z,7.05
2019-03-12T14:58:59.354Z,7.05
2019-03-12T15:01:29.506Z,7.30
2019-03-12T15:03:58.589Z,5.22
2019-03-12T15:06:27.975Z,5.12
2019-03-12T15:08:57.066Z,4.50
2019-03-12T15:11:26.150Z,5.25
2019-03-12T15:13:55.242Z,4.72
2019-03-12T15:16:24.321Z,4.78
2019-03-12T15:18:53.399Z,8.23
2019-03-12T15:21:22.483Z,4.37
2019-03-12T15:23:51.570Z,5.87
2019-03-12T15:26:20.646Z,4.33
2019-03-12T15:28:49.734Z,6.33
2019-03-12T15:31:18.818Z,6.35
2019-03-12T15:33:47.970Z,6.35
2019-03-12T15:36:17.351Z,5.30
2019-03-12T15:38:46.450Z,5.65
2019-03-12T15:41:15.526Z,3.98
2019-03-12T15:43:44.618Z,5.92
2019-03-12T15:46:14.045Z,3.85
2019-03-12T15:48:43.120Z,4.12
2019-03-12T15:51:12.438Z,5.72
2019-03-12T15:53:41.515Z,4.42
2019-03-12T15:56:10.943Z,4.65
2019-03-12T15:58:40.134Z,5.03
2019-03-12T16:01:09.234Z,3.40
2019-03-12T16:03:38.310Z,6.85
2019-03-12T16:06:07.397Z,3.45
2019-03-12T16:08:36.481Z,3.77
2019-03-12T16:11:05.578Z,3.27
2019-03-12T16:13:34.647Z,3.90
2019-03-12T16:16:03.746Z,3.95
2019-03-12T16:18:33.120Z,6.25
2019-03-12T16:21:02.427Z,2.75
2019-03-12T16:23:31.531Z,4.65
2019-03-12T16:26:00.590Z,4.05
2019-03-12T16:28:29.670Z,3.02
2019-03-12T16:33:27.962Z,3.52
2019-03-12T16:35:57.039Z,4.05
2019-03-12T16:38:26.114Z,5.67
2019-03-12T16:40:55.211Z,3.27
2019-03-12T16:43:24.280Z,3.50
2019-03-12T16:45:53.368Z,4.47
2019-03-12T16:48:22.447Z,5.28
2019-03-12T16:50:51.534Z,4.03
2019-03-12T16:53:20.610Z,4.28
2019-03-12T16:56:02.275Z,3.95
2019-03-12T16:58:31.354Z,4.72
2019-03-12T17:01:00.434Z,4.17
2019-03-12T17:03:29.518Z,6.47
2019-03-12T17:05:58.862Z,5.72
2019-03-12T17:08:27.938Z,3.92
2019-03-12T17:11:02.513Z,6.15
2019-03-12T17:13:28.043Z,5.10
2019-03-12T17:15:57.126Z,4.25
2019-03-12T17:18:26.278Z,5.15
2019-03-12T17:20:55.692Z,3.83
2019-03-12T17:23:24.780Z,3.92
2019-03-12T17:25:53.859Z,3.02
2019-03-12T17:28:22.930Z,6.58
2019-03-12T17:30:52.014Z,7.05
2019-03-12T17:33:22.072Z,4.42
2019-03-12T17:35:51.790Z,5.22
2019-03-12T17:38:20.935Z,4.28
2019-03-12T17:40:50.315Z,7.03
2019-03-12T17:43:19.398Z,5.42
2019-03-12T17:45:48.489Z,5.37
2019-03-12T17:48:17.550Z,5.72
2019-03-12T17:50:46.625Z,5.40
2019-03-12T17:53:15.712Z,4.60
2019-03-12T17:55:56.371Z,5.12
2019-03-12T17:58:27.222Z,5.10
2019-03-12T18:00:56.371Z,6.15
2019-03-12T18:03:25.446Z,5.10
2019-03-12T18:05:54.526Z,6.75
2019-03-12T18:08:23.603Z,5.03
2019-03-12T18:10:52.678Z,7.22
2019-03-12T18:13:22.722Z,6.35
2019-03-12T18:15:52.108Z,7.65
2019-03-12T18:18:21.186Z,5.28
2019-03-12T18:20:50.271Z,4.97
2019-03-12T18:23:19.344Z,5.72
2019-03-12T18:25:49.963Z,3.05
2019-03-12T18:28:19.038Z,6.20
2019-03-12T18:30:48.110Z,7.78
2019-03-12T18:33:17.632Z,7.22
2019-03-12T18:35:46.708Z,5.22
2019-03-12T18:38:15.794Z,4.90
2019-03-12T18:40:44.858Z,5.20
2019-03-12T18:43:14.988Z,9.10
2019-03-12T18:45:45.570Z,4.30
2019-03-12T18:48:14.654Z,5.22
2019-03-12T18:50:43.731Z,4.78
2019-03-12T18:53:12.834Z,8.45
2019-03-12T18:55:43.848Z,6.28
2019-03-12T18:58:12.924Z,8.03
2019-03-12T19:00:48.517Z,7.15
2019-03-12T19:03:18.156Z,4.05
2019-03-12T19:05:47.246Z,6.08
2019-03-12T19:08:16.315Z,5.60
2019-03-12T19:10:45.382Z,5.17
2019-03-12T19:13:15.799Z,5.22
2019-03-12T19:15:44.981Z,4.72
2019-03-12T19:18:14.134Z,4.25
2019-03-12T19:20:43.574Z,6.60
2019-03-12T19:23:12.646Z,6.70
2019-03-12T19:25:46.405Z,6.22
2019-03-12T19:28:15.489Z,5.15
2019-03-12T19:30:44.565Z,3.25
2019-03-12T19:33:21.360Z,6.00
2019-03-12T19:35:50.463Z,4.12
2019-03-12T19:38:19.592Z,4.17
2019-03-12T19:40:50.830Z,5.15
2019-03-12T19:43:20.195Z,4.17
2019-03-12T19:45:49.285Z,4.00
2019-03-12T19:48:18.426Z,4.58
2019-03-12T19:50:47.504Z,3.47
2019-03-12T19:53:16.587Z,3.80
2019-03-12T19:55:58.558Z,4.85
2019-03-12T19:58:28.640Z,4.92
2019-03-12T20:00:58.619Z,6.17
2019-03-12T20:03:28.064Z,4.30
2019-03-12T20:05:57.145Z,4.20
2019-03-12T20:08:26.252Z,3.70
2019-03-12T20:11:07.622Z,2.00
2019-03-12T20:14:14.745Z,3.00
2019-03-12T20:17:08.437Z,3.50
2019-03-12T20:19:58.110Z,2.98
2019-03-12T20:23:03.983Z,5.45
2019-03-12T20:25:45.512Z,2.65
2019-03-12T20:28:35.714Z,3.22
2019-03-12T20:31:23.379Z,3.33
2019-03-12T20:33:58.604Z,2.67
2019-03-12T20:36:53.410Z,5.30
2019-03-12T20:39:40.669Z,4.00
2019-03-12T20:42:22.035Z,2.72
2019-03-12T20:45:13.921Z,2.45
2019-03-12T20:47:55.051Z,3.47
2019-03-12T20:50:42.492Z,3.33
2019-03-12T20:53:48.606Z,3.98
2019-03-12T20:56:29.799Z,3.42
2019-03-12T20:59:33.955Z,2.20
2019-03-12T21:02:33.198Z,1.92
2019-03-12T21:05:06.181Z,2.67
2019-03-12T21:08:12.232Z,2.50
2019-03-12T21:11:07.382Z,2.27
2019-03-12T21:13:59.560Z,3.52
2019-03-12T21:16:37.721Z,2.37
2019-03-12T21:19:28.084Z,3.10
2019-03-12T21:22:04.159Z,3.17
2019-03-12T21:24:55.988Z,2.92
2019-03-12T21:27:37.328Z,1.95
2019-03-12T21:30:05.535Z,3.20
2019-03-12T21:32:34.925Z,2.12
2019-03-12T21:35:04.950Z,4.65
2019-03-12T21:37:34.036Z,2.25
2019-03-12T21:40:03.802Z,3.52
2019-03-12T21:42:33.572Z,2.75
2019-03-12T21:45:02.642Z,3.27
2019-03-12T21:47:31.766Z,2.83
2019-03-12T21:50:00.839Z,3.30
2019-03-12T21:52:29.920Z,3.37
2019-03-12T21:54:58.998Z,3.33
2019-03-12T21:57:28.080Z,2.90
2019-03-12T21:59:57.175Z,2.75
2019-03-12T22:02:26.251Z,1.72
2019-03-12T22:04:55.407Z,3.33
2019-03-12T22:07:24.486Z,2.95
2019-03-12T22:09:53.835Z,4.42
2019-03-12T22:12:22.914Z,5.10
2019-03-12T22:14:51.994Z,2.80
2019-03-12T22:17:21.086Z,2.83
2019-03-12T22:19:50.167Z,7.08
2019-03-12T22:22:27.407Z,3.70
2019-03-12T22:24:56.627Z,3.65
2019-03-12T22:27:25.814Z,3.40
2019-03-12T22:29:54.894Z,3.15
2019-03-12T22:32:23.974Z,3.20
2019-03-12T22:34:54.037Z,4.05
2019-03-12T22:37:23.115Z,3.17
2019-03-12T22:39:52.190Z,2.98
2019-03-12T22:42:21.275Z,3.08
2019-03-12T22:44:50.613Z,2.75
2019-03-12T22:47:19.694Z,4.37
2019-03-12T22:49:49.014Z,3.55
2019-03-12T22:52:18.090Z,3.62
2019-03-12T22:54:47.531Z,4.53
2019-03-12T22:57:16.610Z,4.25
2019-03-12T23:00:09.468Z,3.45
2019-03-12T23:02:56.419Z,1.75
2019-03-12T23:05:43.401Z,5.12
2019-03-12T23:08:30.568Z,4.37
2019-03-12T23:11:01.262Z,3.37
2019-03-12T23:13:30.822Z,3.55
2019-03-12T23:16:01.889Z,3.67
2019-03-12T23:18:32.651Z,4.47
2019-03-12T23:21:02.012Z,4.03
2019-03-12T23:23:31.357Z,8.48
2019-03-12T23:26:00.618Z,6.20
2019-03-12T23:28:29.770Z,4.70
2019-03-12T23:30:58.931Z,4.67
2019-03-12T23:33:28.018Z,4.25
2019-03-12T23:35:57.110Z,4.05
2019-03-12T23:38:26.191Z,5.20
2019-03-12T23:40:55.278Z,5.40
2019-03-12T23:43:24.359Z,3.85
2019-03-12T23:45:53.446Z,4.05
2019-03-12T23:48:22.544Z,3.20
2019-03-12T23:50:51.686Z,4.17
2019-03-12T23:53:20.778Z,1.42
2019-03-12T23:55:49.849Z,1.72
2019-03-12T23:58:19.167Z,2.25
